Terminal Aerodrome Forecast
Issued by NWS Melbourne, FL

Home | Current Version | Previous Version | Text Only | Print | Product List | Glossary On
Versions: 1 2 3 4 5 6 7 8 9 10 11 12 13
000
FTUS42 KMLB 230525
TAFMLB
TAF
KMLB 230525Z 2306/2406 VRB03KT P6SM FEW020 SCT250
     FM231500 09006KT P6SM VCSH FEW030 SCT250
     FM231800 09010KT P6SM VCTS SCT030CB SCT060
     FM232100 11009KT P6SM SCT030 SCT100 BKN250
     FM240000 13006KT P6SM VCSH FEW030 SCT120 BKN250=

USA.gov is the U.S. government's official web portal to all federal, state and local government web resources and services.